createdAt,value
2023-05-10T00:00:41.083Z,98903.75
2023-05-10T00:03:08.714Z,98903.31
2023-05-10T00:05:36.116Z,98900.38
2023-05-10T00:08:03.296Z,98899.34
2023-05-10T00:10:30.674Z,98900.44
2023-05-10T00:12:57.718Z,98898.75
2023-05-10T00:15:24.845Z,98901.09
2023-05-10T00:17:52.352Z,98905.00
2023-05-10T00:20:19.693Z,98900.97
2023-05-10T00:22:46.855Z,98898.47
2023-05-10T00:25:14.313Z,98898.59
2023-05-10T00:27:41.421Z,98895.16
2023-05-10T00:30:09.433Z,98896.84
2023-05-10T00:32:36.875Z,98892.44
2023-05-10T00:35:04.269Z,98896.41
2023-05-10T00:37:31.353Z,98888.94
2023-05-10T00:39:58.919Z,98895.69
2023-05-10T00:42:26.056Z,98884.22
2023-05-10T00:44:53.686Z,98889.06
2023-05-10T00:47:21.910Z,98884.91
2023-05-10T00:49:49.096Z,98883.84
2023-05-10T00:52:16.246Z,98883.41
2023-05-10T00:54:44.089Z,98887.66
2023-05-10T00:57:12.271Z,98890.41
2023-05-10T00:59:39.637Z,98880.09
2023-05-10T01:02:07.867Z,98881.75
2023-05-10T01:04:37.526Z,98879.03
2023-05-10T01:07:04.721Z,98881.53
2023-05-10T01:09:32.187Z,98878.06
2023-05-10T01:12:00.096Z,98880.78
2023-05-10T01:14:27.817Z,98883.88
2023-05-10T01:16:55.731Z,98882.47
2023-05-10T01:19:30.604Z,98879.72
2023-05-10T01:22:32.014Z,98879.84
2023-05-10T01:25:01.841Z,98879.38
2023-05-10T01:27:38.434Z,98874.50
2023-05-10T01:30:16.185Z,98874.50
2023-05-10T01:33:07.817Z,98880.66
2023-05-10T01:35:43.814Z,98876.41
2023-05-10T01:38:22.849Z,98872.03
2023-05-10T01:41:17.823Z,98879.38
2023-05-10T01:44:19.729Z,98871.94
2023-05-10T01:46:51.156Z,98877.38
2023-05-10T01:49:27.447Z,98878.22
2023-05-10T01:51:58.884Z,98876.31
2023-05-10T01:54:26.587Z,98876.91
2023-05-10T01:57:00.927Z,98869.19
2023-05-10T01:59:32.107Z,98869.44
2023-05-10T02:02:00.928Z,98860.03
2023-05-10T02:04:28.842Z,98859.56
2023-05-10T02:06:56.715Z,98859.00
2023-05-10T02:09:24.685Z,98857.22
2023-05-10T02:11:52.123Z,98857.78
2023-05-10T02:14:20.083Z,98859.19
2023-05-10T02:16:47.503Z,98862.16
2023-05-10T02:19:15.384Z,98853.62
2023-05-10T02:21:42.666Z,98848.78
2023-05-10T02:24:11.777Z,98848.84
2023-05-10T02:26:39.284Z,98842.69
2023-05-10T02:29:07.736Z,98850.31
2023-05-10T02:31:36.365Z,98840.69
2023-05-10T02:34:05.317Z,98848.31
2023-05-10T02:36:32.923Z,98847.31
2023-05-10T02:39:01.026Z,98841.84
2023-05-10T02:41:28.717Z,98850.97
2023-05-10T02:43:58.840Z,98855.28
2023-05-10T02:46:26.541Z,98850.16
2023-05-10T02:48:53.659Z,98858.72
2023-05-10T02:51:21.946Z,98846.84
2023-05-10T02:53:50.594Z,98850.16
2023-05-10T02:56:30.578Z,98841.00
2023-05-10T02:58:57.934Z,98851.34
2023-05-10T03:01:24.988Z,98843.41
2023-05-10T03:03:52.495Z,98843.91
2023-05-10T03:06:19.889Z,98845.69
2023-05-10T03:08:46.879Z,98841.41
2023-05-10T03:11:13.887Z,98837.38
2023-05-10T03:14:15.716Z,98839.62
2023-05-10T03:16:47.958Z,98838.00
2023-05-10T03:19:23.510Z,98840.59
2023-05-10T03:21:52.565Z,98837.00
2023-05-10T03:24:22.917Z,98838.94
2023-05-10T03:26:50.752Z,98840.44
2023-05-10T03:29:18.356Z,98845.91
2023-05-10T03:31:46.496Z,98841.38
2023-05-10T03:34:14.554Z,98835.81
2023-05-10T03:36:42.269Z,98846.03
2023-05-10T03:39:10.048Z,98842.13
2023-05-10T03:41:37.411Z,98838.28
2023-05-10T03:44:04.983Z,98837.00
2023-05-10T03:46:32.559Z,98839.97
2023-05-10T03:49:00.297Z,98840.59
2023-05-10T03:51:29.155Z,98838.81
2023-05-10T03:53:56.667Z,98839.62
2023-05-10T03:56:24.188Z,98839.38
2023-05-10T03:58:52.707Z,98837.88
2023-05-10T04:01:19.975Z,98839.16
2023-05-10T04:03:47.596Z,98841.63
2023-05-10T04:06:15.306Z,98843.41
2023-05-10T04:08:42.633Z,98842.22
2023-05-10T04:11:11.475Z,98839.94
2023-05-10T04:13:39.160Z,98835.91
2023-05-10T04:16:06.529Z,98845.91
2023-05-10T04:18:33.931Z,98844.09
2023-05-10T04:21:01.279Z,98844.81
2023-05-10T04:23:28.964Z,98839.66
2023-05-10T04:26:02.868Z,98849.22
2023-05-10T04:28:30.004Z,98853.44
2023-05-10T04:31:08.408Z,98852.09
2023-05-10T04:33:36.453Z,98853.13
2023-05-10T04:36:04.683Z,98850.31
2023-05-10T04:38:31.756Z,98855.78
2023-05-10T04:41:10.400Z,98855.84
2023-05-10T04:43:38.431Z,98856.53
2023-05-10T04:46:06.172Z,98856.41
2023-05-10T04:48:34.599Z,98855.06
2023-05-10T04:51:02.212Z,98852.88
2023-05-10T04:53:29.257Z,98861.62
2023-05-10T04:55:56.300Z,98855.72
2023-05-10T04:58:23.602Z,98857.81
2023-05-10T05:00:50.740Z,98855.78
2023-05-10T05:03:18.119Z,98856.81
2023-05-10T05:05:46.025Z,98862.50
2023-05-10T05:08:13.750Z,98860.88
2023-05-10T05:10:40.913Z,98866.25
2023-05-10T05:13:08.345Z,98857.06
2023-05-10T05:15:35.641Z,98869.22
2023-05-10T05:18:03.558Z,98875.84
2023-05-10T05:20:35.035Z,98870.75
2023-05-10T05:23:02.453Z,98874.59
2023-05-10T05:25:29.947Z,98866.03
2023-05-10T05:27:57.656Z,98876.41
2023-05-10T05:30:24.787Z,98878.59
2023-05-10T05:32:52.317Z,98879.97
2023-05-10T05:35:19.783Z,98879.13
2023-05-10T05:37:46.883Z,98879.00
2023-05-10T05:40:15.009Z,98875.09
2023-05-10T05:42:42.914Z,98883.09
2023-05-10T05:45:14.112Z,98883.75
2023-05-10T05:47:41.744Z,98893.25
2023-05-10T05:50:09.938Z,98889.31
2023-05-10T05:52:37.448Z,98886.13
2023-05-10T05:55:05.853Z,98899.31
2023-05-10T05:57:33.456Z,98893.50
2023-05-10T06:00:00.591Z,98896.69
2023-05-10T06:02:27.676Z,98899.09
2023-05-10T06:04:54.958Z,98896.03
2023-05-10T06:07:22.572Z,98894.06
2023-05-10T06:09:49.788Z,98892.88
2023-05-10T06:12:17.054Z,98891.59
2023-05-10T06:14:44.127Z,98900.31
2023-05-10T06:17:11.180Z,98901.66
2023-05-10T06:19:38.499Z,98892.50
2023-05-10T06:22:05.561Z,98900.84
2023-05-10T06:24:32.672Z,98904.59
2023-05-10T06:27:01.101Z,98903.31
2023-05-10T06:29:28.367Z,98913.78
2023-05-10T06:31:55.523Z,98900.25
2023-05-10T06:34:23.450Z,98910.87
2023-05-10T06:36:50.440Z,98908.41
2023-05-10T06:39:17.503Z,98907.06
2023-05-10T06:41:44.770Z,98910.63
2023-05-10T06:44:11.810Z,98904.91
2023-05-10T06:46:38.923Z,98907.81
2023-05-10T06:49:08.340Z,98904.44
2023-05-10T06:51:35.348Z,98907.19
2023-05-10T06:54:02.914Z,98913.88
2023-05-10T06:56:30.235Z,98903.81
2023-05-10T06:58:57.293Z,98908.09
2023-05-10T07:01:24.474Z,98906.88
2023-05-10T07:03:52.056Z,98899.69
2023-05-10T07:06:32.176Z,98901.22
2023-05-10T07:09:01.633Z,98899.97
2023-05-10T07:11:28.775Z,98904.22
2023-05-10T07:13:55.875Z,98909.00
2023-05-10T07:16:23.367Z,98910.13
2023-05-10T07:18:51.670Z,98898.53
2023-05-10T07:21:18.693Z,98908.34
2023-05-10T07:23:46.104Z,98905.19
2023-05-10T07:26:13.212Z,98903.50
2023-05-10T07:28:40.703Z,98900.47
2023-05-10T07:31:08.514Z,98895.87
2023-05-10T07:33:35.674Z,98898.13
2023-05-10T07:36:02.802Z,98895.87
2023-05-10T07:38:31.175Z,98895.31
2023-05-10T07:40:58.443Z,98889.59
2023-05-10T07:43:25.533Z,98900.97
2023-05-10T07:45:55.369Z,98896.34
2023-05-10T07:48:23.212Z,98898.50
2023-05-10T07:50:50.200Z,98903.47
2023-05-10T07:53:19.596Z,98894.69
2023-05-10T07:55:55.670Z,98897.69
2023-05-10T07:58:24.853Z,98903.13
2023-05-10T08:00:52.123Z,98899.50
2023-05-10T08:03:19.566Z,98910.03
2023-05-10T08:05:49.868Z,98908.34
2023-05-10T08:08:17.529Z,98893.91
2023-05-10T08:10:45.182Z,98898.00
2023-05-10T08:13:12.266Z,98905.59
2023-05-10T08:15:39.353Z,98887.13
2023-05-10T08:18:06.889Z,98900.72
2023-05-10T08:20:34.105Z,98903.41
2023-05-10T08:23:01.174Z,98899.09
2023-05-10T08:25:29.386Z,98896.16
2023-05-10T08:27:56.359Z,98894.63
2023-05-10T08:30:23.489Z,98899.41
2023-05-10T08:32:50.877Z,98901.16
2023-05-10T08:35:18.036Z,98897.50
2023-05-10T08:37:45.368Z,98890.91
2023-05-10T08:40:13.212Z,98900.94
2023-05-10T08:42:41.766Z,98892.56
2023-05-10T08:45:09.798Z,98896.53
2023-05-10T08:47:39.090Z,98894.94
2023-05-10T08:50:07.584Z,98895.03
2023-05-10T08:52:41.048Z,98900.47
2023-05-10T08:55:08.742Z,98888.50
2023-05-10T08:57:37.008Z,98893.03
2023-05-10T09:00:04.753Z,98880.66
2023-05-10T09:02:32.381Z,98891.53
2023-05-10T09:04:59.549Z,98889.56
2023-05-10T09:07:26.967Z,98886.31
2023-05-10T09:09:55.137Z,98896.13
2023-05-10T09:12:22.119Z,98898.88
2023-05-10T09:14:49.358Z,98891.31
2023-05-10T09:17:16.843Z,98894.13
2023-05-10T09:19:43.876Z,98893.53
2023-05-10T09:22:11.810Z,98893.97
2023-05-10T09:24:43.437Z,98887.00
2023-05-10T09:27:10.767Z,98888.31
2023-05-10T09:29:43.102Z,98885.09
2023-05-10T09:32:11.659Z,98880.56
2023-05-10T09:34:41.210Z,98885.56
2023-05-10T09:37:09.191Z,98877.31
2023-05-10T09:39:38.360Z,98876.66
2023-05-10T09:42:08.777Z,98884.25
2023-05-10T09:44:36.676Z,98884.38
2023-05-10T09:47:04.681Z,98892.03
2023-05-10T09:49:32.454Z,98883.19
2023-05-10T09:52:07.092Z,98885.91
2023-05-10T09:54:35.612Z,98879.31
2023-05-10T09:57:03.315Z,98874.97
2023-05-10T09:59:30.502Z,98866.28
2023-05-10T10:01:59.401Z,98876.38
2023-05-10T10:04:27.470Z,98878.78
2023-05-10T10:07:02.581Z,98872.63
2023-05-10T10:09:30.554Z,98861.81
2023-05-10T10:11:57.821Z,98858.78
2023-05-10T10:14:25.428Z,98858.34
2023-05-10T10:17:06.454Z,98859.63
2023-05-10T10:19:38.952Z,98867.84
2023-05-10T10:22:07.070Z,98859.34
2023-05-10T10:24:34.475Z,98855.00
2023-05-10T10:27:26.275Z,98861.00
2023-05-10T10:30:02.393Z,98848.88
2023-05-10T10:32:49.213Z,98843.66
2023-05-10T10:35:17.185Z,98840.44
2023-05-10T10:37:46.276Z,98847.25
2023-05-10T10:40:27.956Z,98838.69
2023-05-10T10:42:57.395Z,98840.38
2023-05-10T10:45:27.348Z,98833.88
2023-05-10T10:48:24.038Z,98839.94
2023-05-10T10:50:59.030Z,98834.78
2023-05-10T10:53:29.675Z,98841.41
2023-05-10T10:56:10.473Z,98836.81
2023-05-10T10:58:39.078Z,98825.94
2023-05-10T11:01:13.996Z,98817.25
2023-05-10T11:03:41.379Z,98823.16
2023-05-10T11:06:09.939Z,98814.47
2023-05-10T11:08:47.081Z,98815.62
2023-05-10T11:11:16.175Z,98811.78
2023-05-10T11:13:45.845Z,98805.72
2023-05-10T11:16:24.972Z,98809.47
2023-05-10T11:19:05.186Z,98802.47
2023-05-10T11:21:33.668Z,98810.41
2023-05-10T11:24:06.670Z,98810.41
2023-05-10T11:26:37.543Z,98804.56
2023-05-10T11:29:06.004Z,98795.66
2023-05-10T11:31:33.421Z,98801.53
2023-05-10T11:34:02.767Z,98796.19
2023-05-10T11:36:34.827Z,98796.56
2023-05-10T11:39:02.880Z,98786.25
2023-05-10T11:41:34.303Z,98797.31
2023-05-10T11:44:01.980Z,98793.03
2023-05-10T11:46:29.565Z,98782.03
2023-05-10T11:49:03.172Z,98791.59
2023-05-10T11:51:31.203Z,98790.97
2023-05-10T11:53:58.504Z,98794.88
2023-05-10T11:56:27.339Z,98791.69
2023-05-10T11:58:57.134Z,98794.69
2023-05-10T12:01:27.845Z,98785.72
2023-05-10T12:04:00.025Z,98780.78
2023-05-10T12:06:33.299Z,98782.44
2023-05-10T12:09:04.771Z,98785.44
2023-05-10T12:11:32.155Z,98786.03
2023-05-10T12:13:59.219Z,98783.38
2023-05-10T12:16:30.546Z,98780.22
2023-05-10T12:19:00.696Z,98792.25
2023-05-10T12:21:34.526Z,98793.62
2023-05-10T12:24:05.859Z,98793.62
2023-05-10T12:26:33.653Z,98776.25
2023-05-10T12:29:17.394Z,98782.91
2023-05-10T12:31:59.252Z,98778.91
2023-05-10T12:34:34.525Z,98770.12
2023-05-10T12:37:03.333Z,98772.66
2023-05-10T12:39:44.543Z,98770.12
2023-05-10T12:42:12.210Z,98760.28
2023-05-10T12:44:39.998Z,98768.38
2023-05-10T12:47:07.209Z,98758.34
2023-05-10T12:49:36.000Z,98757.94
2023-05-10T12:52:03.243Z,98757.59
2023-05-10T12:54:30.598Z,98746.97
2023-05-10T12:56:57.956Z,98747.09
2023-05-10T12:59:25.028Z,98753.75
2023-05-10T13:01:52.387Z,98750.94
2023-05-10T13:04:19.695Z,98750.69
2023-05-10T13:06:46.779Z,98754.31
2023-05-10T13:09:13.801Z,98738.44
2023-05-10T13:11:41.183Z,98732.09
2023-05-10T13:14:08.230Z,98737.75
2023-05-10T13:16:35.828Z,98733.72
2023-05-10T13:19:03.995Z,98733.72
2023-05-10T13:21:31.454Z,98732.56
2023-05-10T13:23:58.891Z,98731.31
2023-05-10T13:26:26.561Z,98723.75
2023-05-10T13:28:53.593Z,98718.31
2023-05-10T13:31:21.630Z,98716.03
2023-05-10T13:33:49.385Z,98712.56
2023-05-10T13:36:16.485Z,98704.78
2023-05-10T13:38:43.528Z,98713.53
2023-05-10T13:41:13.951Z,98709.66
2023-05-10T13:43:41.362Z,98711.84
2023-05-10T13:46:09.426Z,98714.13
2023-05-10T13:48:39.665Z,98712.72
2023-05-10T13:51:06.680Z,98711.13
2023-05-10T13:53:33.694Z,98709.69
2023-05-10T13:56:01.414Z,98694.19
2023-05-10T13:58:28.419Z,98695.16
2023-05-10T14:00:57.104Z,98699.84
2023-05-10T14:03:25.554Z,98691.56
2023-05-10T14:05:53.020Z,98685.22
2023-05-10T14:08:20.101Z,98692.63
2023-05-10T14:10:47.363Z,98691.38
2023-05-10T14:13:14.475Z,98686.09
2023-05-10T14:15:41.690Z,98682.22
2023-05-10T14:18:09.054Z,98680.84
2023-05-10T14:20:39.111Z,98677.06
2023-05-10T14:23:07.022Z,98688.16
2023-05-10T14:25:35.593Z,98680.31
2023-05-10T14:28:02.902Z,98673.13
2023-05-10T14:30:30.419Z,98681.13
2023-05-10T14:32:59.522Z,98672.84
2023-05-10T14:35:26.598Z,98669.41
2023-05-10T14:37:54.360Z,98669.28
2023-05-10T14:40:22.047Z,98672.78
2023-05-10T14:42:49.255Z,98670.78
2023-05-10T14:45:16.584Z,98667.72
2023-05-10T14:47:44.430Z,98674.00
2023-05-10T14:50:14.796Z,98663.03
2023-05-10T14:52:48.908Z,98668.16
2023-05-10T14:55:18.383Z,98679.72
2023-05-10T14:57:47.454Z,98670.97
2023-05-10T15:00:16.997Z,98673.94
2023-05-10T15:02:44.726Z,98668.47
2023-05-10T15:05:12.241Z,98667.34
2023-05-10T15:07:40.022Z,98664.28
2023-05-10T15:10:07.571Z,98660.59
2023-05-10T15:12:34.596Z,98656.72
2023-05-10T15:15:01.931Z,98649.53
2023-05-10T15:17:29.220Z,98650.34
2023-05-10T15:19:56.396Z,98641.94
2023-05-10T15:22:24.973Z,98646.13
2023-05-10T15:24:54.638Z,98655.03
2023-05-10T15:27:21.622Z,98644.59
2023-05-10T15:29:48.983Z,98647.28
2023-05-10T15:32:16.150Z,98647.03
2023-05-10T15:34:43.202Z,98635.72
2023-05-10T15:37:10.933Z,98654.59
2023-05-10T15:39:39.371Z,98639.16
2023-05-10T15:42:07.331Z,98649.50
2023-05-10T15:44:36.083Z,98658.16
2023-05-10T15:47:06.822Z,98654.47
2023-05-10T15:49:34.778Z,98649.75
2023-05-10T15:52:02.049Z,98664.28
2023-05-10T15:54:29.094Z,98650.22
2023-05-10T15:56:56.478Z,98646.31
2023-05-10T15:59:23.460Z,98647.00
2023-05-10T16:01:51.138Z,98651.03
2023-05-10T16:04:18.514Z,98651.22
2023-05-10T16:06:45.884Z,98647.00
2023-05-10T16:09:12.855Z,98652.66
2023-05-10T16:11:40.179Z,98657.88
2023-05-10T16:14:07.557Z,98653.72
2023-05-10T16:16:35.564Z,98655.25
2023-05-10T16:19:04.078Z,98650.63
2023-05-10T16:21:34.272Z,98648.53
2023-05-10T16:24:03.955Z,98649.06
2023-05-10T16:26:31.515Z,98648.16
2023-05-10T16:28:58.695Z,98649.47
2023-05-10T16:31:25.810Z,98651.81
2023-05-10T16:33:53.604Z,98651.50
2023-05-10T16:36:20.833Z,98652.94
2023-05-10T16:38:47.813Z,98658.41
2023-05-10T16:41:15.185Z,98655.78
2023-05-10T16:43:42.144Z,98654.28
2023-05-10T16:46:12.603Z,98656.44
2023-05-10T16:48:39.958Z,98658.78
2023-05-10T16:51:07.179Z,98655.41
2023-05-10T16:53:34.515Z,98653.84
2023-05-10T16:56:01.798Z,98662.81
2023-05-10T16:58:28.836Z,98662.66
2023-05-10T17:00:55.809Z,98665.63
2023-05-10T17:03:23.552Z,98670.72
2023-05-10T17:05:50.769Z,98667.63
2023-05-10T17:08:17.763Z,98669.25
2023-05-10T17:10:45.094Z,98671.47
2023-05-10T17:13:12.381Z,98674.06
2023-05-10T17:15:39.521Z,98668.50
2023-05-10T17:18:07.624Z,98675.75
2023-05-10T17:20:34.811Z,98679.53
2023-05-10T17:23:03.198Z,98679.66
2023-05-10T17:25:30.567Z,98686.56
2023-05-10T17:27:57.548Z,98684.09
2023-05-10T17:30:27.489Z,98667.09
2023-05-10T17:32:54.879Z,98679.16
2023-05-10T17:35:22.119Z,98684.16
2023-05-10T17:37:49.142Z,98684.38
2023-05-10T17:40:16.721Z,98684.50
2023-05-10T17:42:43.815Z,98690.84
2023-05-10T17:45:11.237Z,98695.16
2023-05-10T17:47:38.750Z,98687.25
2023-05-10T17:50:06.590Z,98692.09
2023-05-10T17:52:33.779Z,98692.63
2023-05-10T17:55:01.472Z,98689.56
2023-05-10T17:57:28.753Z,98694.69
2023-05-10T17:59:56.102Z,98700.00
2023-05-10T18:02:23.471Z,98697.22
2023-05-10T18:04:50.848Z,98698.25
2023-05-10T18:07:17.916Z,98703.88
2023-05-10T18:09:45.003Z,98707.81
2023-05-10T18:12:12.452Z,98701.09
2023-05-10T18:14:41.347Z,98700.28
2023-05-10T18:17:09.625Z,98711.81
2023-05-10T18:19:37.207Z,98710.69
2023-05-10T18:22:04.978Z,98713.66
2023-05-10T18:27:03.947Z,98707.69
2023-05-10T18:29:31.086Z,98714.09
2023-05-10T18:31:58.149Z,98718.38
2023-05-10T18:34:25.706Z,98722.50
2023-05-10T18:36:53.007Z,98728.28
2023-05-10T18:39:22.693Z,98727.25
2023-05-10T18:41:50.269Z,98730.53
2023-05-10T18:44:18.803Z,98731.50
2023-05-10T18:46:46.460Z,98736.25
2023-05-10T18:49:13.993Z,98734.91
2023-05-10T18:51:40.999Z,98732.62
2023-05-10T18:54:07.975Z,98740.81
2023-05-10T18:56:35.447Z,98739.31
2023-05-10T18:59:03.549Z,98740.47
2023-05-10T19:01:30.832Z,98741.44
2023-05-10T19:03:58.894Z,98742.91
2023-05-10T19:06:26.109Z,98746.31
2023-05-10T19:08:53.169Z,98747.28
2023-05-10T19:11:21.846Z,98750.78
2023-05-10T19:13:48.929Z,98755.66
2023-05-10T19:16:23.341Z,98753.97
2023-05-10T19:18:51.478Z,98749.72
2023-05-10T19:21:18.620Z,98753.78
2023-05-10T19:23:46.249Z,98751.31
2023-05-10T19:26:13.692Z,98749.31
2023-05-10T19:28:41.393Z,98753.34
2023-05-10T19:31:08.780Z,98753.06
2023-05-10T19:33:37.302Z,98753.72
2023-05-10T19:36:04.909Z,98755.84
2023-05-10T19:38:31.935Z,98750.53
2023-05-10T19:40:59.548Z,98758.09
2023-05-10T19:43:27.674Z,98758.41
2023-05-10T19:45:55.583Z,98754.12
2023-05-10T19:48:23.109Z,98755.94
2023-05-10T19:50:52.846Z,98747.66
2023-05-10T19:53:20.197Z,98752.00
2023-05-10T19:55:47.611Z,98751.13
2023-05-10T19:58:14.695Z,98746.19
2023-05-10T20:00:41.687Z,98753.53
2023-05-10T20:03:09.539Z,98751.13
2023-05-10T20:05:36.636Z,98748.50
2023-05-10T20:08:03.619Z,98749.63
2023-05-10T20:10:30.979Z,98747.78
2023-05-10T20:12:59.006Z,98754.81
2023-05-10T20:15:26.023Z,98760.09
2023-05-10T20:17:53.872Z,98751.31
2023-05-10T20:20:21.476Z,98744.91
2023-05-10T20:22:49.580Z,98756.91
2023-05-10T20:25:17.742Z,98755.16
2023-05-10T20:27:45.171Z,98759.09
2023-05-10T20:30:12.585Z,98751.56
2023-05-10T20:32:39.953Z,98751.56
2023-05-10T20:35:07.257Z,98753.53
2023-05-10T20:37:34.211Z,98761.47
2023-05-10T20:40:01.491Z,98758.16
2023-05-10T20:42:28.665Z,98754.50
2023-05-10T20:44:55.960Z,98756.16
2023-05-10T20:47:23.529Z,98757.78
2023-05-10T20:49:50.819Z,98756.34
2023-05-10T20:52:18.076Z,98757.63
2023-05-10T20:54:46.302Z,98756.81
2023-05-10T20:57:13.337Z,98755.16
2023-05-10T20:59:40.326Z,98754.03
2023-05-10T21:02:08.094Z,98750.13
2023-05-10T21:04:35.142Z,98755.75
2023-05-10T21:07:02.436Z,98752.50
2023-05-10T21:09:29.758Z,98753.34
2023-05-10T21:11:57.753Z,98744.16
2023-05-10T21:14:24.888Z,98744.44
2023-05-10T21:16:52.624Z,98745.16
2023-05-10T21:19:19.624Z,98751.37
2023-05-10T21:21:46.896Z,98747.09
2023-05-10T21:24:14.194Z,98746.56
2023-05-10T21:26:42.065Z,98750.56
2023-05-10T21:29:09.187Z,98746.94
2023-05-10T21:31:36.573Z,98751.37
2023-05-10T21:34:03.677Z,98752.88
2023-05-10T21:36:30.782Z,98755.34
2023-05-10T21:38:58.140Z,98755.66
2023-05-10T21:41:25.263Z,98752.72
2023-05-10T21:43:52.381Z,98749.09
2023-05-10T21:46:19.869Z,98754.47
2023-05-10T21:48:47.012Z,98748.75
2023-05-10T21:51:14.476Z,98753.22
2023-05-10T21:53:42.227Z,98752.72
2023-05-10T21:56:09.252Z,98748.91
2023-05-10T21:58:36.609Z,98760.22
2023-05-10T22:01:04.154Z,98757.72
2023-05-10T22:03:31.560Z,98757.38
2023-05-10T22:05:58.636Z,98765.09
2023-05-10T22:08:26.826Z,98763.91
2023-05-10T22:10:54.204Z,98769.16
2023-05-10T22:13:21.328Z,98766.22
2023-05-10T22:15:48.439Z,98770.12
2023-05-10T22:18:15.990Z,98774.75
2023-05-10T22:20:46.589Z,98767.91
2023-05-10T22:23:13.943Z,98769.13
2023-05-10T22:25:41.371Z,98765.91
2023-05-10T22:28:09.234Z,98766.66
2023-05-10T22:30:37.305Z,98764.03
2023-05-10T22:33:05.071Z,98770.22
2023-05-10T22:35:32.527Z,98766.06
2023-05-10T22:37:59.642Z,98763.09
2023-05-10T22:40:27.429Z,98763.66
2023-05-10T22:42:54.476Z,98766.37
2023-05-10T22:45:21.538Z,98767.28
2023-05-10T22:47:49.003Z,98773.63
2023-05-10T22:50:16.701Z,98777.41
2023-05-10T22:52:44.310Z,98771.38
2023-05-10T22:55:11.906Z,98784.13
2023-05-10T22:57:39.113Z,98774.69
2023-05-10T23:00:07.308Z,98782.66
2023-05-10T23:02:34.804Z,98780.19
2023-05-10T23:05:01.970Z,98784.59
2023-05-10T23:07:29.079Z,98781.44
2023-05-10T23:09:56.431Z,98785.34
2023-05-10T23:12:23.674Z,98784.13
2023-05-10T23:14:51.738Z,98782.84
2023-05-10T23:17:19.179Z,98779.72
2023-05-10T23:19:46.178Z,98786.31
2023-05-10T23:22:13.731Z,98775.28
2023-05-10T23:24:41.169Z,98777.75
2023-05-10T23:27:08.319Z,98777.38
2023-05-10T23:29:35.653Z,98782.22
2023-05-10T23:32:03.313Z,98777.03
2023-05-10T23:34:30.622Z,98778.31
2023-05-10T23:36:57.679Z,98774.84
2023-05-10T23:39:25.171Z,98786.03
2023-05-10T23:41:52.210Z,98780.13
2023-05-10T23:44:19.294Z,98783.03
2023-05-10T23:46:46.747Z,98779.06
2023-05-10T23:49:13.822Z,98783.59
2023-05-10T23:51:42.014Z,98792.75
2023-05-10T23:54:10.688Z,98788.50
2023-05-10T23:56:38.560Z,98786.38
2023-05-10T23:59:08.624Z,98786.22
